Time;durP1;ratioP1;P1;durP2;ratioP2;P2;SDS_P1;SDS_P2;PMS_P1;PMS_P2;Temp;Humidity;BMP_temperature;BMP_pressure;BME280_temperature;BME280_humidity;BME280_pressure;Samples;Min_cycle;Max_cycle;Signal;HPM_P1;HPM_P2
2024/01/31 00:04:16;;;;;;;36.57;20.60;;;3.70;1.00;;;;;;10372162;28;20214;-84
2024/01/31 00:09:37;;;;;;;32.10;20.20;;;3.80;99.90;;;;;;10411539;28;20481;-83
2024/01/31 00:14:58;;;;;;;37.33;20.37;;;3.80;99.90;;;;;;10415772;28;20254;-83
2024/01/31 00:20:20;;;;;;;32.67;18.80;;;3.90;99.90;;;;;;10401660;28;20194;-83
2024/01/31 00:25:41;;;;;;;30.57;17.07;;;3.90;1.00;;;;;;10399943;28;20199;-82
2024/01/31 00:31:02;;;;;;;27.67;16.70;;;4.00;99.90;;;;;;10400899;28;20266;-82
2024/01/31 00:36:24;;;;;;;26.63;16.63;;;4.00;99.90;;;;;;10400850;28;20203;-82
2024/01/31 00:41:47;;;;;;;32.00;16.77;;;4.10;99.90;;;;;;10386824;28;20267;-82
2024/01/31 00:47:09;;;;;;;26.43;15.50;;;4.10;1.00;;;;;;10387132;28;20195;-82
2024/01/31 00:52:30;;;;;;;27.23;15.60;;;4.10;95.60;;;;;;10414367;28;20294;-82
2024/01/31 00:57:51;;;;;;;28.43;16.17;;;4.20;1.00;;;;;;10399177;28;20246;-81
2024/01/31 01:03:12;;;;;;;31.60;15.67;;;4.20;1.00;;;;;;10413305;28;20198;-82
2024/01/31 01:08:34;;;;;;;21.53;13.77;;;4.20;99.90;;;;;;10412745;28;20198;-83
2024/01/31 01:13:55;;;;;;;28.53;14.83;;;4.20;99.90;;;;;;10432488;28;20226;-81
2024/01/31 01:19:18;;;;;;;33.20;16.47;;;4.30;1.00;;;;;;10412449;28;20389;-81
2024/01/31 01:24:39;;;;;;;35.40;15.37;;;4.30;1.00;;;;;;10393906;28;20282;-83
2024/01/31 01:30:00;;;;;;;33.50;16.10;;;4.30;1.00;;;;;;10436230;28;20238;-83
2024/01/31 01:35:22;;;;;;;31.57;16.20;;;4.30;1.00;;;;;;10398547;28;20500;-83
2024/01/31 01:40:44;;;;;;;29.20;16.23;;;4.40;1.00;;;;;;10384444;28;20219;-83
2024/01/31 01:46:16;;;;;;;35.93;16.57;;;4.40;1.00;;;;;;10384599;28;20481;-83
2024/01/31 01:51:39;;;;;;;29.27;15.70;;;4.40;99.90;;;;;;10397756;28;20202;-82
2024/01/31 01:57:01;;;;;;;33.77;15.93;;;4.40;99.90;;;;;;10366201;28;20222;-82
2024/01/31 02:02:22;;;;;;;25.70;14.60;;;4.40;99.90;;;;;;10379197;28;20227;-82
2024/01/31 02:07:44;;;;;;;37.53;16.90;;;4.40;1.00;;;;;;10391926;28;20239;-83
2024/01/31 02:13:06;;;;;;;27.43;16.03;;;4.50;1.00;;;;;;10361729;28;20232;-83
2024/01/31 02:18:28;;;;;;;30.27;16.90;;;4.50;1.00;;;;;;10369621;28;20271;-83
2024/01/31 02:23:50;;;;;;;35.77;19.30;;;4.50;99.90;;;;;;10365215;28;20198;-83
2024/01/31 02:29:11;;;;;;;26.67;16.77;;;4.50;1.00;;;;;;10391469;28;20226;-82
2024/01/31 02:34:33;;;;;;;25.57;17.17;;;4.50;1.00;;;;;;10396184;28;20225;-82
2024/01/31 02:39:56;;;;;;;30.80;18.43;;;4.50;39.50;;;;;;10396287;28;20211;-83
2024/01/31 02:45:18;;;;;;;39.23;19.30;;;4.40;1.00;;;;;;10382095;28;20244;-83
2024/01/31 02:50:41;;;;;;;29.73;18.57;;;4.50;1.00;;;;;;10394049;28;20216;-82
2024/01/31 02:56:06;;;;;;;35.73;18.47;;;4.50;1.00;;;;;;10371532;28;20227;-83
2024/01/31 03:01:27;;;;;;;31.77;18.23;;;4.50;1.00;;;;;;10385458;28;20199;-82
2024/01/31 03:06:49;;;;;;;36.50;18.53;;;4.50;29.10;;;;;;10376891;28;20201;-83
2024/01/31 03:12:10;;;;;;;32.33;18.60;;;4.50;99.90;;;;;;10395229;28;20223;-83
2024/01/31 03:17:35;;;;;;;27.83;17.77;;;4.60;99.90;;;;;;10381537;28;20219;-82
2024/01/31 03:22:59;;;;;;;29.43;17.37;;;4.60;9.20;;;;;;10382540;28;20210;-82
2024/01/31 03:28:23;;;;;;;28.57;17.70;;;4.60;23.20;;;;;;10357966;28;20248;-82
2024/01/31 03:33:45;;;;;;;30.03;17.33;;;4.60;1.00;;;;;;10394442;28;20236;-82
2024/01/31 03:39:07;;;;;;;29.53;16.73;;;4.60;16.20;;;;;;10394620;28;20493;-82
2024/01/31 03:44:28;;;;;;;30.30;17.93;;;4.60;1.00;;;;;;10394655;28;20198;-83
2024/01/31 03:49:51;;;;;;;38.07;18.17;;;4.60;1.00;;;;;;10410133;28;20501;-81
2024/01/31 03:55:12;;;;;;;42.10;24.27;;;4.70;1.00;;;;;;10358889;28;20450;-83
2024/01/31 04:00:33;;;;;;;49.33;27.77;;;4.60;1.00;;;;;;10372389;28;20196;-83
2024/01/31 04:05:55;;;;;;;37.73;20.90;;;4.60;1.00;;;;;;10368374;28;20201;-83
2024/01/31 04:11:16;;;;;;;35.63;22.30;;;4.60;1.00;;;;;;10379988;28;20206;-82
2024/01/31 04:16:38;;;;;;;31.27;18.43;;;4.60;1.00;;;;;;10393899;28;20231;-82
2024/01/31 04:21:59;;;;;;;36.33;19.17;;;4.60;1.00;;;;;;10409711;28;20282;-82
2024/01/31 04:27:20;;;;;;;60.03;30.73;;;4.60;99.90;;;;;;10394532;28;20253;-82
2024/01/31 04:32:42;;;;;;;39.30;20.73;;;4.60;1.00;;;;;;10379542;28;20548;-82
2024/01/31 04:38:03;;;;;;;64.17;29.50;;;4.60;1.00;;;;;;10393359;28;20205;-82
2024/01/31 04:43:24;;;;;;;60.67;27.97;;;4.50;1.00;;;;;;10395090;28;20214;-82
2024/01/31 04:48:46;;;;;;;46.77;24.33;;;4.60;1.00;;;;;;10386433;28;20200;-81
2024/01/31 04:54:07;;;;;;;40.83;23.67;;;4.70;1.00;;;;;;10389325;28;20233;-81
2024/01/31 04:59:28;;;;;;;44.53;25.03;;;4.80;11.40;;;;;;10413873;28;20261;-81
2024/01/31 05:04:50;;;;;;;39.70;22.90;;;4.70;99.90;;;;;;10378129;28;20219;-82
2024/01/31 05:10:14;;;;;;;34.17;19.57;;;4.80;1.00;;;;;;10416582;28;20204;-83
2024/01/31 05:15:35;;;;;;;33.07;18.27;;;4.80;1.00;;;;;;10374921;28;20238;-83
2024/01/31 05:21:00;;;;;;;30.77;18.63;;;4.80;1.00;;;;;;10412856;28;20207;-82
2024/01/31 05:26:21;;;;;;;31.27;20.20;;;4.80;1.00;;;;;;10384864;28;20247;-83
2024/01/31 05:31:43;;;;;;;29.97;19.43;;;4.80;1.00;;;;;;10384636;28;20254;-82
2024/01/31 05:37:04;;;;;;;32.20;19.07;;;4.90;1.00;;;;;;10365032;28;20286;-82
2024/01/31 05:42:27;;;;;;;30.77;18.60;;;4.90;1.00;;;;;;10375424;28;20211;-82
2024/01/31 05:47:48;;;;;;;30.20;19.20;;;4.90;99.90;;;;;;10425267;28;20197;-82
2024/01/31 05:53:09;;;;;;;31.80;20.43;;;4.90;1.00;;;;;;10408949;28;20288;-83
2024/01/31 05:58:31;;;;;;;30.57;19.13;;;4.90;1.00;;;;;;10383644;28;20297;-81
2024/01/31 06:03:53;;;;;;;29.73;17.00;;;4.90;1.00;;;;;;10383520;28;20204;-82
2024/01/31 06:09:15;;;;;;;29.83;18.83;;;4.90;25.10;;;;;;10372661;28;20202;-83
2024/01/31 06:14:36;;;;;;;30.13;18.27;;;4.90;94.10;;;;;;10383215;28;20237;-82
2024/01/31 06:19:57;;;;;;;30.47;18.90;;;5.00;99.90;;;;;;10397212;28;20190;-83
2024/01/31 06:25:21;;;;;;;35.93;18.03;;;5.00;99.90;;;;;;10360629;28;20497;-83
2024/01/31 06:30:44;;;;;;;30.07;19.00;;;5.00;99.90;;;;;;10407970;28;20234;-83
2024/01/31 06:36:06;;;;;;;28.50;19.90;;;5.00;99.90;;;;;;10374276;28;20238;-83
2024/01/31 06:41:28;;;;;;;32.50;19.97;;;5.00;1.00;;;;;;10387825;28;20196;-83
2024/01/31 06:46:50;;;;;;;28.57;18.93;;;5.00;1.00;;;;;;10382369;28;20240;-82
2024/01/31 06:52:12;;;;;;;28.47;18.83;;;5.00;1.00;;;;;;10381807;28;20505;-83
2024/01/31 06:57:34;;;;;;;30.67;19.40;;;5.10;1.00;;;;;;10396703;28;20217;-83
2024/01/31 07:02:57;;;;;;;30.70;20.17;;;5.20;1.00;;;;;;10395476;28;20228;-83
2024/01/31 07:08:21;;;;;;;27.53;19.17;;;5.20;1.00;;;;;;10386513;28;20204;-82
2024/01/31 07:13:44;;;;;;;34.90;19.20;;;5.20;1.00;;;;;;10381575;28;20220;-83
2024/01/31 07:19:05;;;;;;;30.30;19.40;;;5.20;1.00;;;;;;10367870;28;20200;-82
2024/01/31 07:24:29;;;;;;;33.70;21.63;;;5.20;1.00;;;;;;10380991;28;20207;-82
2024/01/31 07:29:50;;;;;;;27.70;18.23;;;5.30;1.00;;;;;;10394543;28;20228;-83
2024/01/31 07:35:12;;;;;;;27.70;20.57;;;5.30;1.00;;;;;;10389678;28;20223;-83
2024/01/31 07:40:33;;;;;;;27.33;19.30;;;5.30;1.00;;;;;;10359882;28;20245;-83
2024/01/31 07:45:57;;;;;;;30.70;19.33;;;5.50;1.00;;;;;;10427728;28;20204;-82
2024/01/31 07:51:18;;;;;;;29.90;20.77;;;5.40;1.00;;;;;;10394329;28;20199;-82
2024/01/31 07:56:39;;;;;;;38.10;27.23;;;5.50;1.00;;;;;;10427221;28;20401;-82
2024/01/31 08:02:01;;;;;;;27.10;18.07;;;5.60;1.00;;;;;;10408563;28;20218;-82
2024/01/31 08:07:22;;;;;;;27.87;18.70;;;5.70;1.00;;;;;;10369876;28;20282;-83
2024/01/31 08:12:45;;;;;;;26.93;18.43;;;5.60;1.00;;;;;;10371351;28;20443;-81
2024/01/31 08:18:06;;;;;;;31.83;19.87;;;5.70;1.00;;;;;;10413985;28;20210;-82
2024/01/31 08:23:28;;;;;;;24.77;15.97;;;5.70;1.00;;;;;;10414964;28;20201;-82
2024/01/31 08:28:49;;;;;;;22.20;16.23;;;5.80;1.00;;;;;;10367041;28;20255;-81
2024/01/31 08:34:14;;;;;;;20.13;14.33;;;5.80;1.00;;;;;;10411956;28;20232;-83
2024/01/31 08:39:35;;;;;;;27.97;16.83;;;5.90;1.00;;;;;;10395725;28;20200;-84
2024/01/31 08:44:57;;;;;;;24.07;16.37;;;5.90;1.00;;;;;;10377222;28;20338;-82
2024/01/31 08:50:18;;;;;;;23.23;17.03;;;5.80;1.00;;;;;;10395729;28;20299;-82
2024/01/31 08:55:39;;;;;;;23.87;16.07;;;5.70;1.00;;;;;;10374151;28;20238;-81
2024/01/31 09:01:01;;;;;;;19.37;13.83;;;5.80;1.00;;;;;;10391525;28;20216;-83
2024/01/31 09:06:22;;;;;;;18.00;12.10;;;5.80;1.00;;;;;;10365044;28;20474;-82
2024/01/31 09:11:47;;;;;;;12.63;9.53;;;5.80;8.00;;;;;;10411145;28;20569;-83
2024/01/31 09:17:11;;;;;;;10.60;8.67;;;5.90;1.00;;;;;;10359252;28;20299;-85
2024/01/31 09:22:33;;;;;;;12.37;7.90;;;6.00;1.00;;;;;;10366638;28;20246;-82
2024/01/31 09:27:54;;;;;;;9.63;7.40;;;6.10;1.00;;;;;;10344845;28;20200;-88
2024/01/31 09:33:16;;;;;;;8.00;5.83;;;6.10;99.90;;;;;;10432950;28;20457;-82
2024/01/31 09:38:37;;;;;;;4.00;2.67;;;6.20;99.90;;;;;;10440766;28;20213;-89
2024/01/31 09:43:59;;;;;;;6.03;3.37;;;6.20;1.00;;;;;;10436294;28;20197;-88
2024/01/31 09:49:21;;;;;;;2.87;2.33;;;6.10;1.00;;;;;;10419712;28;20226;-81
2024/01/31 09:54:46;;;;;;;1.83;1.60;;;6.10;1.00;;;;;;10419435;28;20233;-83
2024/01/31 10:00:08;;;;;;;2.30;0.70;;;6.20;73.10;;;;;;10421103;28;20254;-81
2024/01/31 10:05:33;;;;;;;3.83;1.00;;;6.10;1.00;;;;;;10390814;28;20399;-82
2024/01/31 10:10:55;;;;;;;2.00;1.03;;;6.00;99.90;;;;;;10352217;28;20192;-81
2024/01/31 10:16:17;;;;;;;0.90;0.90;;;5.90;99.90;;;;;;10353945;28;20245;-81
2024/01/31 10:21:38;;;;;;;3.90;1.00;;;5.80;1.00;;;;;;10361988;28;20555;-80
2024/01/31 10:27:03;;;;;;;1.13;0.77;;;5.80;99.90;;;;;;10370461;28;20207;-80
2024/01/31 10:32:25;;;;;;;2.53;1.10;;;5.70;1.00;;;;;;10364098;28;20241;-84
2024/01/31 10:37:48;;;;;;;3.13;0.87;;;5.60;1.00;;;;;;10350599;28;20234;-79
2024/01/31 10:43:14;;;;;;;2.43;1.30;;;5.50;1.00;;;;;;10349102;28;20206;-80
2024/01/31 10:48:36;;;;;;;3.43;2.30;;;5.50;1.00;;;;;;10368218;28;20249;-81
2024/01/31 10:53:58;;;;;;;3.37;2.40;;;5.30;14.10;;;;;;10390499;28;20541;-81
2024/01/31 10:59:20;;;;;;;2.13;1.80;;;5.40;1.00;;;;;;10402165;28;20461;-80
2024/01/31 11:04:45;;;;;;;3.97;1.60;;;5.40;1.00;;;;;;10393189;28;20290;-81
2024/01/31 11:10:10;;;;;;;3.90;2.30;;;5.40;99.90;;;;;;10423003;28;20193;-80
2024/01/31 11:15:35;;;;;;;3.03;2.27;;;5.30;1.00;;;;;;10405605;28;20528;-81
2024/01/31 11:20:57;;;;;;;5.07;1.60;;;5.20;1.00;;;;;;10389490;28;20195;-81
2024/01/31 11:26:30;;;;;;;3.33;2.03;;;5.20;99.90;;;;;;10389782;28;20206;-80
2024/01/31 11:31:52;;;;;;;4.13;1.80;;;5.20;99.90;;;;;;10373716;28;20619;-81
2024/01/31 11:37:13;;;;;;;2.17;1.77;;;5.20;1.00;;;;;;10408370;28;20676;-81
2024/01/31 11:42:34;;;;;;;4.37;2.10;;;5.10;1.00;;;;;;10374517;28;20208;-81
2024/01/31 11:47:57;;;;;;;2.83;1.70;;;5.00;1.00;;;;;;10375199;28;20243;-86
2024/01/31 11:53:18;;;;;;;4.10;1.53;;;5.00;1.00;;;;;;10371565;28;20415;-81
2024/01/31 11:58:40;;;;;;;3.13;1.30;;;4.90;99.90;;;;;;10388950;28;20205;-81
2024/01/31 12:04:02;;;;;;;11.63;2.40;;;5.00;1.00;;;;;;10381789;28;20198;-81
2024/01/31 12:09:23;;;;;;;9.67;2.40;;;4.90;1.00;;;;;;10359159;28;20194;-86
2024/01/31 12:14:45;;;;;;;7.90;1.97;;;4.80;1.00;;;;;;10390364;28;20309;-82
2024/01/31 12:20:12;;;;;;;10.20;2.00;;;4.70;1.00;;;;;;10415632;28;20197;-83
2024/01/31 12:25:33;;;;;;;12.97;2.40;;;4.60;1.00;;;;;;10405191;28;20759;-82
2024/01/31 12:30:56;;;;;;;8.87;2.73;;;4.50;1.00;;;;;;10376493;28;20551;-80
2024/01/31 12:36:18;;;;;;;13.60;2.20;;;4.40;1.00;;;;;;10368178;28;20240;-79
2024/01/31 12:41:39;;;;;;;8.90;2.30;;;4.40;99.90;;;;;;10395388;28;20278;-84
2024/01/31 12:47:05;;;;;;;12.47;3.97;;;4.40;1.00;;;;;;10382251;28;20204;-83
2024/01/31 12:52:26;;;;;;;10.63;2.70;;;4.40;1.00;;;;;;10381228;28;20248;-78
2024/01/31 12:57:48;;;;;;;13.20;2.60;;;4.40;1.00;;;;;;10411092;28;20256;-84
2024/01/31 13:03:09;;;;;;;18.40;3.90;;;4.40;1.00;;;;;;10363193;28;20301;-83
2024/01/31 13:08:38;;;;;;;12.13;2.33;;;4.30;1.00;;;;;;10404609;28;20199;-80
2024/01/31 13:14:05;;;;;;;13.43;3.27;;;4.30;1.00;;;;;;10381385;28;20237;-80
2024/01/31 13:19:27;;;;;;;11.60;2.87;;;4.30;1.00;;;;;;10339676;28;20289;-82
2024/01/31 13:24:48;;;;;;;20.70;3.97;;;4.30;1.00;;;;;;10361957;28;20207;-86
2024/01/31 13:30:10;;;;;;;12.03;3.10;;;4.30;1.00;;;;;;10385003;28;20233;-83
2024/01/31 13:35:32;;;;;;;12.73;2.50;;;4.40;1.00;;;;;;10353624;28;20241;-82
2024/01/31 13:40:54;;;;;;;17.63;3.83;;;4.40;1.00;;;;;;10364456;28;20361;-86
2024/01/31 13:46:16;;;;;;;10.50;2.30;;;4.50;99.90;;;;;;10379633;28;20265;-82
2024/01/31 13:51:41;;;;;;;6.60;2.30;;;4.50;56.90;;;;;;10407725;28;20207;-83
2024/01/31 13:57:02;;;;;;;12.23;2.23;;;4.50;99.90;;;;;;10378437;28;20229;-83
2024/01/31 14:02:26;;;;;;;7.97;1.80;;;4.50;88.80;;;;;;10378833;28;20208;-82
2024/01/31 14:07:49;;;;;;;11.20;2.13;;;4.50;1.00;;;;;;10378290;28;20483;-82
2024/01/31 14:13:10;;;;;;;11.87;2.20;;;4.50;1.00;;;;;;10387898;28;20205;-84
2024/01/31 14:18:31;;;;;;;11.90;2.30;;;4.40;1.00;;;;;;10379370;28;20209;-84
2024/01/31 14:23:53;;;;;;;10.33;2.17;;;4.40;1.00;;;;;;10378403;28;20654;-81
2024/01/31 14:29:17;;;;;;;13.67;2.43;;;4.40;1.00;;;;;;10395878;28;20632;-82
2024/01/31 14:34:39;;;;;;;7.87;1.83;;;4.40;1.00;;;;;;10392145;28;20229;-84
2024/01/31 14:40:00;;;;;;;9.63;1.93;;;4.40;1.00;;;;;;10407948;28;20488;-83
2024/01/31 14:45:22;;;;;;;5.07;1.60;;;4.50;1.00;;;;;;10369979;28;20267;-81
2024/01/31 14:50:44;;;;;;;7.60;2.00;;;4.40;1.00;;;;;;10354304;28;20573;-85
2024/01/31 14:56:06;;;;;;;9.87;2.07;;;4.40;1.00;;;;;;10382453;28;20249;-82
2024/01/31 15:01:29;;;;;;;10.00;2.13;;;4.40;1.00;;;;;;10387351;28;20308;-83
2024/01/31 15:06:50;;;;;;;15.53;2.33;;;4.50;1.00;;;;;;10374894;28;20522;-82
2024/01/31 15:12:12;;;;;;;13.13;2.20;;;4.40;1.00;;;;;;10389022;28;20499;-89
2024/01/31 15:17:33;;;;;;;10.80;1.80;;;4.40;1.00;;;;;;10377879;28;20310;-82
2024/01/31 15:22:55;;;;;;;12.70;2.30;;;4.40;1.00;;;;;;10389819;28;20286;-82
2024/01/31 15:28:16;;;;;;;9.80;2.10;;;4.30;1.00;;;;;;10370477;28;20245;-81
2024/01/31 15:33:39;;;;;;;11.33;2.37;;;4.30;1.00;;;;;;10375642;28;20229;-81
2024/01/31 15:39:00;;;;;;;10.53;2.30;;;4.30;1.00;;;;;;10370996;28;20530;-82
2024/01/31 15:44:23;;;;;;;16.47;2.30;;;4.20;1.00;;;;;;10340536;28;20206;-81
2024/01/31 15:49:45;;;;;;;10.17;3.53;;;4.20;1.00;;;;;;10387586;28;20283;-82
2024/01/31 15:55:08;;;;;;;11.70;3.77;;;4.10;1.00;;;;;;10375604;28;20244;-82
2024/01/31 16:00:30;;;;;;;11.83;3.47;;;4.10;1.00;;;;;;10375553;28;20198;-86
2024/01/31 16:05:52;;;;;;;10.53;3.93;;;3.90;21.50;;;;;;10414651;28;20203;-82
2024/01/31 16:11:18;;;;;;;10.43;3.60;;;3.80;99.90;;;;;;10376942;28;20244;-83
2024/01/31 16:16:42;;;;;;;13.43;3.90;;;3.80;99.90;;;;;;10378348;28;20252;-83
2024/01/31 16:22:03;;;;;;;18.20;4.57;;;3.60;99.90;;;;;;10392942;28;20270;-83
2024/01/31 16:27:26;;;;;;;12.07;3.30;;;3.60;1.00;;;;;;10388440;28;20627;-84
2024/01/31 16:32:48;;;;;;;15.20;4.40;;;3.50;1.00;;;;;;10376546;28;20655;-84
2024/01/31 16:38:10;;;;;;;11.27;4.37;;;3.40;1.00;;;;;;10397022;28;20245;-84
2024/01/31 16:43:32;;;;;;;13.37;5.47;;;3.40;1.00;;;;;;10378366;28;20496;-84
2024/01/31 16:48:55;;;;;;;18.27;4.97;;;3.30;1.00;;;;;;10368234;28;20218;-84
2024/01/31 16:54:17;;;;;;;15.77;5.77;;;3.30;1.00;;;;;;10371857;28;20233;-83
2024/01/31 16:59:39;;;;;;;30.03;10.50;;;3.20;1.00;;;;;;10348899;28;20211;-84
2024/01/31 17:05:02;;;;;;;25.37;9.93;;;3.20;1.00;;;;;;10357130;28;20210;-83
2024/01/31 17:10:26;;;;;;;18.70;7.23;;;3.30;1.00;;;;;;10400083;28;20198;-84
2024/01/31 17:15:48;;;;;;;17.27;7.43;;;3.30;1.00;;;;;;10398966;28;20225;-85
2024/01/31 17:21:10;;;;;;;20.70;7.50;;;3.20;1.00;;;;;;10399506;28;20236;-83
2024/01/31 17:26:31;;;;;;;21.50;8.70;;;3.20;1.00;;;;;;10398301;28;20438;-84
2024/01/31 17:31:53;;;;;;;18.37;8.17;;;3.20;1.00;;;;;;10384888;28;20226;-83
2024/01/31 17:37:14;;;;;;;16.03;5.93;;;3.20;1.00;;;;;;10370434;28;20222;-83
2024/01/31 17:42:35;;;;;;;20.40;5.87;;;3.20;1.00;;;;;;10398543;28;20203;-83
2024/01/31 17:47:58;;;;;;;20.10;5.17;;;3.20;1.00;;;;;;10384400;28;20383;-84
2024/01/31 17:53:21;;;;;;;19.30;5.77;;;3.20;1.00;;;;;;10396931;28;20203;-84
2024/01/31 17:58:42;;;;;;;18.87;7.80;;;3.20;1.00;;;;;;10383614;28;20206;-84
2024/01/31 18:04:07;;;;;;;20.03;5.83;;;3.20;1.00;;;;;;10384155;28;20198;-83
2024/01/31 18:09:28;;;;;;;25.10;9.73;;;3.10;1.00;;;;;;10396829;28;20206;-84
2024/01/31 18:14:49;;;;;;;22.70;9.90;;;3.00;1.00;;;;;;10375579;28;20231;-84
2024/01/31 18:20:11;;;;;;;40.73;13.93;;;2.90;1.00;;;;;;10397286;28;20446;-84
2024/01/31 18:25:32;;;;;;;45.97;17.73;;;2.90;1.00;;;;;;10369911;28;20261;-84
2024/01/31 18:30:54;;;;;;;26.67;10.87;;;2.80;1.00;;;;;;10370282;28;20652;-84
2024/01/31 18:36:15;;;;;;;29.20;10.90;;;2.80;1.00;;;;;;10375821;28;20237;-84
2024/01/31 18:41:40;;;;;;;17.87;7.37;;;2.80;1.00;;;;;;10397610;28;20204;-84
2024/01/31 18:47:01;;;;;;;28.67;9.57;;;2.70;1.00;;;;;;10382305;28;20201;-83
2024/01/31 18:52:22;;;;;;;23.27;8.93;;;2.70;1.00;;;;;;10381391;28;20231;-83
2024/01/31 18:57:43;;;;;;;26.13;10.43;;;2.80;83.20;;;;;;10395562;28;20213;-84
2024/01/31 19:03:05;;;;;;;28.67;11.37;;;2.80;1.00;;;;;;10393805;28;20198;-83
2024/01/31 19:08:27;;;;;;;20.53;8.10;;;2.80;1.00;;;;;;10395585;28;20198;-83
2024/01/31 19:13:56;;;;;;;25.67;10.13;;;2.80;1.00;;;;;;10381292;28;20202;-83
2024/01/31 19:19:17;;;;;;;9.57;5.40;;;2.80;1.00;;;;;;10370221;28;20206;-83
2024/01/31 19:24:40;;;;;;;10.50;4.37;;;2.80;1.00;;;;;;10340981;28;20455;-83
2024/01/31 19:30:01;;;;;;;8.43;4.13;;;2.80;1.00;;;;;;10360489;28;20262;-84
2024/01/31 19:35:24;;;;;;;12.30;5.73;;;2.90;1.00;;;;;;10370640;28;20459;-84
2024/01/31 19:40:48;;;;;;;21.67;8.60;;;2.90;1.00;;;;;;10354132;28;20202;-83
2024/01/31 19:46:19;;;;;;;16.37;7.70;;;3.00;1.00;;;;;;10344241;28;20245;-84
2024/01/31 19:51:40;;;;;;;11.03;5.13;;;3.00;1.00;;;;;;10344133;28;20527;-83
2024/01/31 19:57:03;;;;;;;14.00;5.13;;;3.00;99.90;;;;;;10340623;28;20289;-83
2024/01/31 20:02:24;;;;;;;9.97;5.10;;;2.90;1.00;;;;;;10360929;28;20200;-83
2024/01/31 20:07:45;;;;;;;14.37;5.23;;;2.90;12.10;;;;;;10383217;28;20491;-82
2024/01/31 20:13:07;;;;;;;16.77;8.50;;;2.80;74.60;;;;;;10392484;28;20194;-82
2024/01/31 20:18:29;;;;;;;10.60;4.90;;;2.80;56.10;;;;;;10374721;28;20249;-82
2024/01/31 20:23:54;;;;;;;16.60;6.57;;;2.90;1.00;;;;;;10388329;28;20435;-82
2024/01/31 20:29:16;;;;;;;11.57;5.93;;;2.90;99.90;;;;;;10386886;28;20317;-82
2024/01/31 20:34:39;;;;;;;18.20;5.83;;;2.80;99.90;;;;;;10388061;28;20416;-83
2024/01/31 20:40:03;;;;;;;10.10;4.63;;;2.90;99.90;;;;;;10401034;28;20189;-83
2024/01/31 20:45:24;;;;;;;14.80;6.30;;;2.80;29.70;;;;;;10400731;28;20201;-83
2024/01/31 20:50:48;;;;;;;18.50;5.00;;;2.70;99.90;;;;;;10387273;28;20216;-83
2024/01/31 20:56:18;;;;;;;13.63;6.77;;;2.70;99.90;;;;;;10385806;28;20274;-83
2024/01/31 21:01:42;;;;;;;12.13;5.07;;;2.60;99.90;;;;;;10386571;28;20272;-82
2024/01/31 21:07:06;;;;;;;7.07;3.87;;;2.60;99.90;;;;;;10401699;28;20228;-83
2024/01/31 21:12:27;;;;;;;12.20;6.03;;;2.60;78.90;;;;;;10363701;28;20216;-83
2024/01/31 21:17:49;;;;;;;11.83;4.90;;;2.50;99.90;;;;;;10363192;28;20598;-83
2024/01/31 21:23:10;;;;;;;9.77;4.63;;;2.40;99.90;;;;;;10398912;28;20455;-83
2024/01/31 21:28:32;;;;;;;12.43;4.67;;;2.50;99.90;;;;;;10385451;28;20306;-82
2024/01/31 21:33:53;;;;;;;9.37;4.10;;;2.30;1.00;;;;;;10399071;28;20195;-82
2024/01/31 21:39:15;;;;;;;10.10;3.23;;;2.40;99.90;;;;;;10398989;28;20491;-83
2024/01/31 21:44:36;;;;;;;8.97;3.53;;;2.30;1.00;;;;;;10413200;28;20209;-84
2024/01/31 21:49:58;;;;;;;9.63;4.33;;;2.40;99.90;;;;;;10397771;28;20209;-83
2024/01/31 21:55:21;;;;;;;12.63;5.20;;;2.30;1.00;;;;;;10384941;28;20225;-83
2024/01/31 22:00:42;;;;;;;7.93;2.90;;;2.40;1.00;;;;;;10398454;28;20216;-82
2024/01/31 22:06:06;;;;;;;5.07;2.90;;;2.30;1.00;;;;;;10367748;28;20281;-83
2024/01/31 22:11:30;;;;;;;5.83;3.50;;;2.30;1.00;;;;;;10399687;28;20193;-84
2024/01/31 22:16:52;;;;;;;10.57;3.87;;;2.30;1.00;;;;;;10383347;28;20233;-83
2024/01/31 22:22:15;;;;;;;20.77;6.57;;;2.20;1.00;;;;;;10356507;28;20221;-84
2024/01/31 22:27:38;;;;;;;23.93;8.57;;;2.20;1.00;;;;;;10376819;28;20208;-84
2024/01/31 22:32:59;;;;;;;9.77;3.67;;;2.20;1.00;;;;;;10365660;28;20201;-84
2024/01/31 22:38:21;;;;;;;11.20;4.80;;;2.30;1.00;;;;;;10373950;28;20408;-84
2024/01/31 22:43:43;;;;;;;23.40;8.17;;;2.20;1.00;;;;;;10378417;28;20208;-82
2024/01/31 22:49:08;;;;;;;14.43;5.27;;;2.30;1.00;;;;;;10380358;28;20262;-83
2024/01/31 22:54:30;;;;;;;9.90;4.53;;;2.30;1.00;;;;;;10358139;28;20242;-83
2024/01/31 22:59:52;;;;;;;12.47;4.43;;;2.30;1.00;;;;;;10363988;28;20215;-84
2024/01/31 23:05:14;;;;;;;10.53;4.00;;;2.40;1.00;;;;;;10395327;28;20272;-84
2024/01/31 23:10:35;;;;;;;8.73;3.60;;;2.30;1.00;;;;;;10395581;28;20223;-83
2024/01/31 23:15:56;;;;;;;8.90;3.33;;;2.30;1.00;;;;;;10392333;28;20400;-83
2024/01/31 23:21:17;;;;;;;5.50;3.37;;;2.30;1.00;;;;;;10409139;28;20189;-84
2024/01/31 23:26:41;;;;;;;5.83;2.80;;;2.30;1.00;;;;;;10389077;28;20528;-83
2024/01/31 23:32:03;;;;;;;6.23;2.87;;;2.40;99.90;;;;;;10380983;28;20588;-84
2024/01/31 23:37:24;;;;;;;5.83;3.20;;;2.50;99.90;;;;;;10394647;28;20631;-83
2024/01/31 23:42:49;;;;;;;4.93;2.83;;;2.50;99.90;;;;;;10356665;28;20216;-83
2024/01/31 23:48:10;;;;;;;5.30;3.07;;;2.60;42.60;;;;;;10343788;28;20484;-84
2024/01/31 23:53:34;;;;;;;6.03;2.77;;;2.50;99.90;;;;;;10375974;28;20391;-83
2024/01/31 23:58:57;;;;;;;7.67;3.20;;;2.40;99.90;;;;;;10402973;28;20225;-83
